Time;durP1;ratioP1;P1;durP2;ratioP2;P2;SDS_P1;SDS_P2;PMS_P1;PMS_P2;Temp;Humidity;BMP_temperature;BMP_pressure;BME280_temperature;BME280_humidity;BME280_pressure;Samples;Min_cycle;Max_cycle;Signal;HPM_P1;HPM_P2
2021/01/12 00:01:44;;;;;;;16.83;9.80;;;;;;;;;;5053723;28;20176;-74
2021/01/12 00:04:11;;;;;;;18.35;12.75;;;;;;;;;;5053385;28;20402;-74
2021/01/12 00:06:37;;;;;;;19.15;11.75;;;;;;;;;;5053511;28;20498;-78
2021/01/12 00:12:07;;;;;;;15.90;10.70;;;;;;;;;;5053747;28;20188;-75
2021/01/12 00:14:33;;;;;;;16.92;9.95;;;;;;;;;;5053474;28;20642;-74
2021/01/12 00:17:00;;;;;;;18.33;11.73;;;;;;;;;;5053372;28;20718;-74
2021/01/12 00:19:26;;;;;;;18.52;10.18;;;;;;;;;;5053411;28;20614;-74
2021/01/12 00:21:52;;;;;;;18.08;10.77;;;;;;;;;;5052964;28;20244;-76
2021/01/12 00:27:23;;;;;;;17.30;10.55;;;;;;;;;;5053653;28;20173;-73
2021/01/12 00:29:49;;;;;;;15.48;11.15;;;;;;;;;;5052864;28;20244;-73
2021/01/12 00:32:19;;;;;;;15.05;10.43;;;;;;;;;;5053388;28;20186;-74
2021/01/12 00:34:45;;;;;;;15.95;11.10;;;;;;;;;;5052778;28;20183;-74
2021/01/12 00:37:11;;;;;;;19.10;11.25;;;;;;;;;;5051645;28;20237;-73
2021/01/12 00:39:38;;;;;;;17.70;10.33;;;;;;;;;;5052862;28;20163;-75
2021/01/12 00:42:04;;;;;;;15.13;9.00;;;;;;;;;;5052742;28;20423;-75
2021/01/12 00:44:30;;;;;;;17.30;10.20;;;;;;;;;;5053002;28;20215;-76
2021/01/12 00:46:56;;;;;;;15.55;10.98;;;;;;;;;;5053172;28;20258;-74
2021/01/12 00:49:22;;;;;;;15.70;12.15;;;;;;;;;;5052886;28;20872;-74
2021/01/12 00:51:49;;;;;;;17.83;10.68;;;;;;;;;;5053507;28;20170;-74
2021/01/12 00:57:18;;;;;;;12.05;9.20;;;;;;;;;;5053863;28;20184;-77
2021/01/12 00:59:45;;;;;;;18.47;10.60;;;;;;;;;;5052809;28;20177;-77
2021/01/12 01:02:11;;;;;;;14.30;10.35;;;;;;;;;;5052551;28;20419;-77
2021/01/12 01:04:37;;;;;;;19.27;12.57;;;;;;;;;;5052477;28;20173;-74
2021/01/12 01:07:03;;;;;;;14.23;9.33;;;;;;;;;;5052362;28;20254;-77
2021/01/12 01:12:33;;;;;;;12.88;9.10;;;;;;;;;;5052272;28;20415;-77
2021/01/12 01:14:59;;;;;;;13.83;10.13;;;;;;;;;;5052328;28;20169;-76
2021/01/12 01:17:24;;;;;;;17.35;10.07;;;;;;;;;;5052514;28;20451;-75
2021/01/12 01:19:50;;;;;;;15.10;8.40;;;;;;;;;;5052429;28;20268;-80
2021/01/12 01:22:16;;;;;;;19.50;11.23;;;;;;;;;;5051926;28;20429;-75
2021/01/12 01:27:46;;;;;;;17.27;10.70;;;;;;;;;;5052262;28;20410;-74
2021/01/12 01:30:12;;;;;;;16.47;10.07;;;;;;;;;;5052044;28;20547;-74
2021/01/12 01:32:38;;;;;;;17.42;8.10;;;;;;;;;;5052144;28;20467;-78
2021/01/12 01:35:05;;;;;;;18.08;10.43;;;;;;;;;;5051987;28;20655;-74
2021/01/12 01:37:30;;;;;;;15.82;8.80;;;;;;;;;;5051734;28;20187;-75
2021/01/12 01:43:00;;;;;;;12.60;8.20;;;;;;;;;;5052020;28;20417;-77
2021/01/12 01:45:26;;;;;;;12.47;7.80;;;;;;;;;;5051881;28;20183;-74
2021/01/12 01:47:52;;;;;;;13.88;8.30;;;;;;;;;;5051464;28;20421;-75
2021/01/12 01:50:19;;;;;;;11.77;7.63;;;;;;;;;;5052066;28;20165;-74
2021/01/12 01:58:41;;;;;;;12.38;7.32;;;;;;;;;;5051964;28;20576;-74
2021/01/12 02:01:07;;;;;;;12.63;6.72;;;;;;;;;;5052047;28;20174;-75
2021/01/12 02:03:39;;;;;;;12.57;7.90;;;;;;;;;;5051994;28;20205;-75
2021/01/12 02:06:09;;;;;;;14.07;6.30;;;;;;;;;;5051581;28;20221;-75
2021/01/12 02:08:49;;;;;;;10.60;7.85;;;;;;;;;;5051819;28;20169;-76
2021/01/12 02:11:16;;;;;;;9.57;6.53;;;;;;;;;;5051745;28;20555;-74
2021/01/12 02:13:43;;;;;;;10.20;7.10;;;;;;;;;;5051901;28;20186;-75
2021/01/12 02:16:10;;;;;;;10.82;7.95;;;;;;;;;;5051759;28;20210;-77
2021/01/12 02:18:36;;;;;;;12.98;8.00;;;;;;;;;;5051736;28;20234;-78
2021/01/12 02:21:03;;;;;;;8.52;7.43;;;;;;;;;;5051995;28;20183;-76
2021/01/12 02:23:33;;;;;;;11.10;7.88;;;;;;;;;;5051604;28;20201;-74
2021/01/12 02:25:59;;;;;;;12.90;7.57;;;;;;;;;;5051887;28;20182;-74
2021/01/12 02:28:25;;;;;;;10.40;6.20;;;;;;;;;;5051609;28;20175;-76
2021/01/12 02:30:51;;;;;;;9.33;6.63;;;;;;;;;;5051654;28;20175;-75
2021/01/12 02:33:17;;;;;;;9.02;6.60;;;;;;;;;;5051502;28;20402;-76
2021/01/12 02:35:46;;;;;;;9.30;7.07;;;;;;;;;;5051214;28;20239;-74
2021/01/12 02:38:12;;;;;;;8.05;5.78;;;;;;;;;;5050975;28;20516;-77
2021/01/12 02:40:38;;;;;;;7.43;5.47;;;;;;;;;;5051414;28;20306;-75
2021/01/12 02:43:04;;;;;;;9.45;5.82;;;;;;;;;;5051608;28;20876;-74
2021/01/12 02:45:31;;;;;;;8.70;6.25;;;;;;;;;;5051365;28;20187;-76
2021/01/12 02:47:57;;;;;;;8.85;5.00;;;;;;;;;;5051338;28;20178;-74
2021/01/12 02:50:23;;;;;;;8.18;4.75;;;;;;;;;;5051474;28;20171;-73
2021/01/12 02:52:49;;;;;;;8.25;5.43;;;;;;;;;;5051309;28;20170;-75
2021/01/12 02:58:18;;;;;;;8.15;4.85;;;;;;;;;;5051304;28;20219;-74
2021/01/12 03:00:45;;;;;;;9.90;5.50;;;;;;;;;;5054454;28;20175;-74
2021/01/12 03:03:11;;;;;;;6.97;4.65;;;;;;;;;;5054512;28;20193;-75
2021/01/12 03:05:37;;;;;;;7.33;5.00;;;;;;;;;;5054816;28;20255;-75
2021/01/12 03:08:03;;;;;;;9.90;6.00;;;;;;;;;;5054462;28;20409;-75
2021/01/12 03:13:33;;;;;;;7.03;4.97;;;;;;;;;;5054710;28;20243;-75
2021/01/12 03:15:59;;;;;;;8.68;5.10;;;;;;;;;;5054518;28;20205;-78
2021/01/12 03:18:25;;;;;;;6.50;4.87;;;;;;;;;;5054633;28;20167;-75
2021/01/12 03:20:51;;;;;;;8.55;5.20;;;;;;;;;;5054540;28;20544;-76
2021/01/12 03:23:17;;;;;;;7.55;4.75;;;;;;;;;;5054462;28;20270;-75
2021/01/12 03:28:46;;;;;;;6.35;5.03;;;;;;;;;;5054186;28;20222;-78
2021/01/12 03:31:12;;;;;;;5.15;4.18;;;;;;;;;;5054282;28;20602;-74
2021/01/12 03:33:38;;;;;;;5.70;3.23;;;;;;;;;;5054688;28;20193;-75
2021/01/12 03:36:04;;;;;;;6.47;4.93;;;;;;;;;;5053727;28;20489;-74
2021/01/12 03:38:30;;;;;;;3.75;3.25;;;;;;;;;;5054258;28;20416;-74
2021/01/12 03:44:00;;;;;;;5.18;4.15;;;;;;;;;;5054289;28;20285;-72
2021/01/12 03:46:27;;;;;;;7.63;4.95;;;;;;;;;;5054070;28;20199;-74
2021/01/12 03:48:53;;;;;;;9.23;5.78;;;;;;;;;;5053995;28;20255;-74
2021/01/12 03:51:19;;;;;;;6.50;4.70;;;;;;;;;;5053589;28;20170;-74
2021/01/12 03:53:45;;;;;;;5.93;4.25;;;;;;;;;;5054007;28;20176;-74
2021/01/12 03:56:14;;;;;;;5.97;4.53;;;;;;;;;;5053551;28;20230;-75
2021/01/12 03:58:40;;;;;;;4.70;3.72;;;;;;;;;;5053623;28;20443;-77
2021/01/12 04:01:07;;;;;;;4.32;3.65;;;;;;;;;;5053734;28;20179;-75
2021/01/12 04:03:33;;;;;;;7.93;4.50;;;;;;;;;;5053618;28;20587;-76
2021/01/12 04:06:03;;;;;;;6.30;4.45;;;;;;;;;;5052556;28;20527;-75
2021/01/12 04:08:29;;;;;;;4.50;4.10;;;;;;;;;;5053455;28;20226;-76
2021/01/12 04:13:58;;;;;;;4.50;3.28;;;;;;;;;;5053667;28;20202;-75
2021/01/12 04:16:24;;;;;;;8.00;5.17;;;;;;;;;;5053207;28;20645;-75
2021/01/12 04:18:50;;;;;;;5.07;3.80;;;;;;;;;;5053421;28;20450;-75
2021/01/12 04:21:16;;;;;;;6.87;4.87;;;;;;;;;;5052746;28;20166;-74
2021/01/12 04:23:42;;;;;;;6.05;4.22;;;;;;;;;;5053204;28;20471;-75
2021/01/12 04:29:11;;;;;;;5.40;4.30;;;;;;;;;;5053386;28;20186;-74
2021/01/12 04:31:37;;;;;;;5.87;4.27;;;;;;;;;;5052970;28;20251;-74
2021/01/12 04:34:03;;;;;;;7.73;4.80;;;;;;;;;;5052948;28;20437;-74
2021/01/12 04:36:29;;;;;;;6.33;4.27;;;;;;;;;;5052572;28;20493;-74
2021/01/12 04:38:55;;;;;;;7.40;4.07;;;;;;;;;;5053019;28;20450;-74
2021/01/12 04:44:25;;;;;;;5.53;4.78;;;;;;;;;;5053082;28;20452;-74
2021/01/12 04:46:51;;;;;;;7.30;3.75;;;;;;;;;;5053010;28;20199;-75
2021/01/12 04:49:17;;;;;;;4.87;3.63;;;;;;;;;;5053200;28;20733;-74
2021/01/12 04:51:43;;;;;;;7.80;4.93;;;;;;;;;;5052792;28;20415;-74
2021/01/12 04:54:09;;;;;;;5.47;4.00;;;;;;;;;;5052833;28;20256;-75
2021/01/12 04:56:35;;;;;;;9.85;5.80;;;;;;;;;;5052503;28;20683;-73
2021/01/12 04:59:01;;;;;;;4.90;4.05;;;;;;;;;;5052574;28;20531;-77
2021/01/12 05:01:29;;;;;;;9.87;5.60;;;;;;;;;;5052353;28;20170;-74
2021/01/12 05:03:55;;;;;;;6.70;4.53;;;;;;;;;;5052480;28;20434;-75
2021/01/12 05:06:24;;;;;;;7.23;5.30;;;;;;;;;;5052374;28;20206;-76
2021/01/12 05:08:57;;;;;;;8.45;5.82;;;;;;;;;;5052559;28;20417;-75
2021/01/12 05:14:28;;;;;;;7.95;4.95;;;;;;;;;;5052892;28;20644;-79
2021/01/12 05:16:55;;;;;;;7.32;5.20;;;;;;;;;;5052734;28;20684;-78
2021/01/12 05:19:32;;;;;;;5.78;4.47;;;;;;;;;;5052480;28;20178;-75
2021/01/12 05:21:59;;;;;;;7.63;4.30;;;;;;;;;;5051897;28;20172;-77
2021/01/12 05:24:26;;;;;;;8.30;5.28;;;;;;;;;;5052215;28;20164;-76
2021/01/12 05:26:52;;;;;;;7.85;5.50;;;;;;;;;;5052537;28;20164;-76
2021/01/12 05:29:18;;;;;;;5.70;4.47;;;;;;;;;;5051965;28;20508;-75
2021/01/12 05:31:45;;;;;;;5.30;3.47;;;;;;;;;;5052455;28;20438;-74
2021/01/12 05:34:12;;;;;;;7.25;5.00;;;;;;;;;;5052190;28;20183;-74
2021/01/12 05:36:47;;;;;;;7.43;5.40;;;;;;;;;;5051647;28;20239;-74
2021/01/12 05:39:15;;;;;;;7.63;5.15;;;;;;;;;;5052466;28;20480;-75
2021/01/12 05:44:45;;;;;;;5.38;4.07;;;;;;;;;;5052475;28;20581;-75
2021/01/12 05:47:15;;;;;;;5.72;4.28;;;;;;;;;;5052190;28;20203;-74
2021/01/12 05:49:43;;;;;;;6.90;4.80;;;;;;;;;;5051900;28;20595;-77
2021/01/12 05:52:10;;;;;;;6.80;3.78;;;;;;;;;;5051928;28;20557;-77
2021/01/12 06:00:25;;;;;;;6.18;4.35;;;;;;;;;;5052295;28;20225;-77
2021/01/12 06:02:52;;;;;;;3.88;3.28;;;;;;;;;;5051976;28;20532;-75
2021/01/12 06:05:18;;;;;;;5.22;3.92;;;;;;;;;;5052103;28;20245;-75
2021/01/12 06:07:44;;;;;;;6.32;5.03;;;;;;;;;;5051657;28;20596;-79
2021/01/12 06:10:13;;;;;;;5.93;4.22;;;;;;;;;;5051610;28;20180;-79
2021/01/12 06:12:42;;;;;;;8.18;5.05;;;;;;;;;;5051870;28;20173;-80
2021/01/12 06:15:12;;;;;;;7.35;3.95;;;;;;;;;;5052026;28;20188;-78
2021/01/12 06:17:41;;;;;;;7.65;4.70;;;;;;;;;;5052014;28;20178;-75
2021/01/12 06:20:14;;;;;;;5.82;4.18;;;;;;;;;;5051787;28;20172;-78
2021/01/12 06:22:42;;;;;;;5.07;3.75;;;;;;;;;;5051601;28;20259;-74
2021/01/12 06:25:11;;;;;;;6.03;4.20;;;;;;;;;;5051866;28;20163;-76
2021/01/12 06:27:38;;;;;;;6.30;4.05;;;;;;;;;;5050322;28;20179;-74
2021/01/12 06:30:07;;;;;;;9.07;4.15;;;;;;;;;;5051260;28;20571;-75
2021/01/12 06:32:34;;;;;;;5.70;4.50;;;;;;;;;;5051385;28;20172;-75
2021/01/12 06:35:07;;;;;;;5.65;4.07;;;;;;;;;;5055444;28;20174;-78
2021/01/12 06:37:51;;;;;;;5.82;3.65;;;;;;;;;;5054686;28;20252;-75
2021/01/12 06:40:18;;;;;;;6.47;4.50;;;;;;;;;;5054164;28;20250;-78
2021/01/12 06:42:44;;;;;;;5.88;4.60;;;;;;;;;;5054246;28;20187;-75
2021/01/12 06:45:10;;;;;;;5.82;4.05;;;;;;;;;;5054164;28;20163;-75
2021/01/12 06:47:37;;;;;;;5.35;4.20;;;;;;;;;;5055142;28;20164;-76
2021/01/12 06:50:06;;;;;;;6.88;4.93;;;;;;;;;;5054007;28;20660;-76
2021/01/12 06:52:38;;;;;;;5.70;4.32;;;;;;;;;;5055309;28;20169;-75
2021/01/12 06:55:07;;;;;;;7.50;4.78;;;;;;;;;;5055175;28;20214;-76
2021/01/12 07:00:37;;;;;;;4.80;3.33;;;;;;;;;;5055401;28;20183;-78
2021/01/12 07:03:04;;;;;;;4.97;3.63;;;;;;;;;;5054623;28;20171;-75
2021/01/12 07:05:41;;;;;;;5.15;3.80;;;;;;;;;;5055004;28;20165;-79
2021/01/12 07:08:11;;;;;;;4.78;3.75;;;;;;;;;;5054371;28;20251;-82
2021/01/12 07:10:41;;;;;;;4.68;2.97;;;;;;;;;;5054919;28;20223;-81
2021/01/12 07:13:07;;;;;;;4.88;3.60;;;;;;;;;;5054658;28;20627;-80
2021/01/12 07:15:41;;;;;;;4.53;3.63;;;;;;;;;;5054682;28;20230;-81
2021/01/12 07:18:07;;;;;;;5.75;4.40;;;;;;;;;;5054593;28;20188;-78
2021/01/12 07:20:36;;;;;;;5.57;3.42;;;;;;;;;;5054688;28;20637;-78
2021/01/12 07:23:03;;;;;;;5.45;4.13;;;;;;;;;;5054300;28;20235;-76
2021/01/12 07:25:30;;;;;;;5.55;4.03;;;;;;;;;;5054257;28;20169;-79
2021/01/12 07:28:14;;;;;;;4.00;2.80;;;;;;;;;;5054385;28;20168;-81
2021/01/12 07:30:41;;;;;;;4.65;3.38;;;;;;;;;;5054131;28;20172;-75
2021/01/12 07:33:08;;;;;;;7.85;5.38;;;;;;;;;;5054177;28;20192;-76
2021/01/12 07:35:35;;;;;;;2.95;2.63;;;;;;;;;;5053957;28;20204;-78
2021/01/12 07:38:01;;;;;;;7.45;4.55;;;;;;;;;;5053916;28;20180;-78
2021/01/12 07:40:29;;;;;;;3.25;2.40;;;;;;;;;;5054307;28;20176;-77
2021/01/12 07:45:58;;;;;;;3.92;2.75;;;;;;;;;;5054017;28;20296;-76
2021/01/12 07:48:25;;;;;;;5.05;4.30;;;;;;;;;;5054317;28;20229;-75
2021/01/12 07:50:52;;;;;;;7.10;4.30;;;;;;;;;;5053697;28;20156;-75
2021/01/12 07:53:18;;;;;;;4.40;3.05;;;;;;;;;;5053779;28;20176;-76
2021/01/12 08:01:33;;;;;;;4.13;3.72;;;;;;;;;;5051824;28;20183;-80
2021/01/12 08:04:00;;;;;;;5.68;3.95;;;;;;;;;;5052295;28;20586;-78
2021/01/12 08:06:26;;;;;;;5.82;4.40;;;;;;;;;;5052086;28;20279;-79
2021/01/12 08:08:58;;;;;;;3.40;2.90;;;;;;;;;;5052457;28;20164;-79
2021/01/12 08:11:24;;;;;;;6.45;3.97;;;;;;;;;;5051289;28;20234;-79
2021/01/12 08:13:50;;;;;;;3.50;2.70;;;;;;;;;;5052339;28;20260;-79
2021/01/12 08:16:17;;;;;;;5.05;3.88;;;;;;;;;;5052135;28;20287;-77
2021/01/12 08:18:43;;;;;;;5.32;3.55;;;;;;;;;;5052284;28;20179;-78
2021/01/12 08:21:09;;;;;;;6.43;4.30;;;;;;;;;;5051967;28;20177;-78
2021/01/12 08:23:35;;;;;;;5.80;4.20;;;;;;;;;;5049550;28;20418;-79
2021/01/12 08:32:04;;;;;;;4.47;3.45;;;;;;;;;;5052235;28;20256;-79
2021/01/12 08:34:33;;;;;;;2.72;2.47;;;;;;;;;;5051626;28;20169;-79
2021/01/12 08:37:03;;;;;;;5.85;3.97;;;;;;;;;;5051419;28;20232;-79
2021/01/12 08:39:30;;;;;;;6.75;3.80;;;;;;;;;;5051639;28;20176;-77
2021/01/12 08:41:57;;;;;;;5.60;4.00;;;;;;;;;;5051696;28;20169;-76
2021/01/12 08:44:26;;;;;;;6.20;4.07;;;;;;;;;;5051716;28;20172;-80
2021/01/12 08:46:53;;;;;;;6.80;3.95;;;;;;;;;;5051698;28;20210;-80
2021/01/12 08:49:28;;;;;;;6.35;3.90;;;;;;;;;;5051208;28;20619;-81
2021/01/12 08:51:55;;;;;;;4.65;3.30;;;;;;;;;;5051294;28;20251;-80
2021/01/12 08:54:22;;;;;;;5.90;3.78;;;;;;;;;;5051107;28;20301;-76
2021/01/12 08:57:08;;;;;;;5.13;3.40;;;;;;;;;;5050301;28;20280;-79
2021/01/12 08:59:34;;;;;;;5.15;3.35;;;;;;;;;;5050990;28;20176;-79
2021/01/12 09:02:01;;;;;;;5.50;3.25;;;;;;;;;;5051317;28;20164;-83
2021/01/12 09:04:28;;;;;;;4.80;3.63;;;;;;;;;;5051408;28;20169;-81
2021/01/12 09:07:01;;;;;;;3.70;3.20;;;;;;;;;;5050660;28;20172;-80
2021/01/12 09:09:27;;;;;;;3.40;2.83;;;;;;;;;;5051146;28;20164;-81
2021/01/12 09:11:58;;;;;;;4.38;3.45;;;;;;;;;;5050792;28;20179;-78
2021/01/12 09:14:24;;;;;;;4.60;3.25;;;;;;;;;;5051274;28;20242;-81
2021/01/12 09:16:58;;;;;;;5.18;3.25;;;;;;;;;;5051480;28;20208;-79
2021/01/12 09:19:25;;;;;;;3.67;3.30;;;;;;;;;;5051017;28;20274;-79
2021/01/12 09:21:51;;;;;;;5.00;3.05;;;;;;;;;;5050895;28;20503;-80
2021/01/12 09:24:21;;;;;;;3.67;3.20;;;;;;;;;;5050843;28;20294;-80
2021/01/12 09:26:47;;;;;;;4.05;2.85;;;;;;;;;;5050824;28;20169;-80
2021/01/12 09:29:14;;;;;;;5.45;3.30;;;;;;;;;;5016326;28;20244;-81
2021/01/12 09:31:47;;;;;;;4.30;3.08;;;;;;;;;;5031172;28;20169;-80
2021/01/12 09:34:19;;;;;;;3.83;2.45;;;;;;;;;;5030717;28;20170;-80
2021/01/12 09:36:45;;;;;;;4.38;3.15;;;;;;;;;;5030261;28;20370;-78
2021/01/12 09:39:12;;;;;;;3.78;3.47;;;;;;;;;;5030909;28;20211;-78
2021/01/12 09:41:38;;;;;;;5.78;3.35;;;;;;;;;;5029036;28;20218;-80
2021/01/12 09:47:07;;;;;;;4.68;2.65;;;;;;;;;;5031318;28;20579;-81
2021/01/12 09:49:33;;;;;;;4.63;3.53;;;;;;;;;;5031213;28;20169;-79
2021/01/12 09:51:59;;;;;;;3.63;2.60;;;;;;;;;;5031293;28;20443;-81
2021/01/12 09:54:25;;;;;;;6.63;2.57;;;;;;;;;;5031410;28;20191;-81
2021/01/12 09:56:51;;;;;;;4.60;2.97;;;;;;;;;;5030975;28;20880;-79
2021/01/12 10:02:21;;;;;;;4.95;3.88;;;;;;;;;;5031120;28;21146;-80
2021/01/12 10:04:47;;;;;;;4.30;2.50;;;;;;;;;;5031132;28;20264;-80
2021/01/12 10:07:13;;;;;;;4.97;2.97;;;;;;;;;;5031049;28;20196;-80
2021/01/12 10:09:39;;;;;;;3.65;2.92;;;;;;;;;;5034538;28;20236;-77
2021/01/12 10:12:05;;;;;;;2.90;2.30;;;;;;;;;;5035149;28;20633;-79
2021/01/12 10:17:35;;;;;;;2.95;2.00;;;;;;;;;;5034990;28;20307;-75
2021/01/12 10:20:01;;;;;;;2.47;1.90;;;;;;;;;;5034933;28;20644;-80
2021/01/12 10:22:27;;;;;;;3.57;2.83;;;;;;;;;;5033805;28;20173;-76
2021/01/12 10:24:57;;;;;;;6.75;2.53;;;;;;;;;;5034244;28;20419;-76
2021/01/12 10:27:23;;;;;;;2.30;2.10;;;;;;;;;;5034201;28;20180;-77
2021/01/12 10:29:49;;;;;;;2.00;1.90;;;;;;;;;;5034690;28;20291;-76
2021/01/12 10:32:15;;;;;;;2.75;1.90;;;;;;;;;;5034814;28;20196;-76
2021/01/12 10:34:41;;;;;;;2.03;1.83;;;;;;;;;;5034752;28;20180;-75
2021/01/12 10:37:07;;;;;;;2.57;1.80;;;;;;;;;;5034359;28;20233;-75
2021/01/12 10:39:33;;;;;;;1.98;1.65;;;;;;;;;;5034391;28;20453;-75
2021/01/12 10:42:00;;;;;;;3.75;2.42;;;;;;;;;;5035930;28;20172;-76
2021/01/12 10:47:31;;;;;;;3.28;2.00;;;;;;;;;;5036438;28;20171;-80
2021/01/12 10:49:57;;;;;;;3.30;2.60;;;;;;;;;;5036112;28;20216;-79
2021/01/12 10:52:23;;;;;;;1.60;1.10;;;;;;;;;;5035863;28;20197;-79
2021/01/12 10:54:49;;;;;;;5.68;2.47;;;;;;;;;;5035981;28;20451;-76
2021/01/12 10:57:16;;;;;;;1.75;1.65;;;;;;;;;;5035778;28;20205;-79
2021/01/12 11:02:45;;;;;;;3.25;1.90;;;;;;;;;;5036027;28;20175;-77
2021/01/12 11:05:11;;;;;;;1.80;1.70;;;;;;;;;;5036180;28;20184;-75
2021/01/12 11:07:41;;;;;;;4.72;2.33;;;;;;;;;;5036304;28;20203;-77
2021/01/12 11:10:10;;;;;;;2.20;1.90;;;;;;;;;;5035703;28;20169;-78
2021/01/12 11:12:36;;;;;;;3.33;1.77;;;;;;;;;;5035609;28;20264;-76
2021/01/12 11:18:06;;;;;;;2.97;2.10;;;;;;;;;;5035760;28;20183;-79
2021/01/12 11:20:32;;;;;;;3.13;2.05;;;;;;;;;;5034451;28;20177;-78
2021/01/12 11:22:58;;;;;;;2.47;1.80;;;;;;;;;;5035197;28;20165;-80
2021/01/12 11:25:24;;;;;;;3.23;1.97;;;;;;;;;;5035364;28;20678;-77
2021/01/12 11:27:50;;;;;;;2.50;1.48;;;;;;;;;;5035161;28;20419;-79
2021/01/12 11:30:16;;;;;;;1.87;1.73;;;;;;;;;;5035318;28;20161;-76
2021/01/12 11:32:44;;;;;;;1.73;1.63;;;;;;;;;;5035213;28;20918;-79
2021/01/12 11:35:10;;;;;;;1.60;1.50;;;;;;;;;;5035209;28;20172;-78
2021/01/12 11:37:36;;;;;;;2.30;1.70;;;;;;;;;;5034781;28;20236;-77
2021/01/12 11:40:03;;;;;;;2.75;1.85;;;;;;;;;;5034994;28;20173;-75
2021/01/12 11:42:29;;;;;;;1.58;1.48;;;;;;;;;;5034976;28;20185;-78
2021/01/12 11:47:59;;;;;;;1.67;1.42;;;;;;;;;;5034827;28;20196;-79
2021/01/12 11:50:25;;;;;;;2.27;1.53;;;;;;;;;;5032833;28;20543;-79
2021/01/12 11:52:57;;;;;;;2.08;1.80;;;;;;;;;;5033586;28;20918;-78
2021/01/12 11:55:23;;;;;;;1.90;1.70;;;;;;;;;;5031700;28;20208;-74
2021/01/12 11:57:49;;;;;;;2.05;1.92;;;;;;;;;;5032066;28;20652;-78
2021/01/12 12:03:19;;;;;;;1.70;1.58;;;;;;;;;;5032712;28;20426;-78
2021/01/12 12:05:46;;;;;;;1.90;1.80;;;;;;;;;;5032552;28;20176;-80
2021/01/12 12:08:12;;;;;;;2.60;2.40;;;;;;;;;;5032603;28;20372;-76
2021/01/12 12:10:38;;;;;;;2.47;2.30;;;;;;;;;;5032780;28;20248;-75
2021/01/12 12:13:04;;;;;;;3.65;2.45;;;;;;;;;;5032803;28;20877;-75
2021/01/12 12:18:33;;;;;;;1.85;1.52;;;;;;;;;;5032716;28;20423;-79
2021/01/12 12:20:59;;;;;;;2.75;1.95;;;;;;;;;;5032350;28;20170;-76
2021/01/12 12:23:25;;;;;;;1.27;1.05;;;;;;;;;;5032132;28;20177;-76
2021/01/12 12:25:51;;;;;;;1.30;1.20;;;;;;;;;;5032500;28;20177;-76
2021/01/12 12:28:17;;;;;;;1.40;1.30;;;;;;;;;;5031896;28;20511;-75
2021/01/12 12:33:47;;;;;;;1.77;1.67;;;;;;;;;;5032990;28;20171;-76
2021/01/12 12:36:15;;;;;;;1.55;1.33;;;;;;;;;;5031585;28;20251;-78
2021/01/12 12:38:41;;;;;;;2.63;1.33;;;;;;;;;;5032106;28;20193;-77
2021/01/12 12:41:08;;;;;;;1.63;1.40;;;;;;;;;;5032139;28;20192;-78
2021/01/12 12:43:34;;;;;;;1.20;1.08;;;;;;;;;;5029961;28;20172;-75
2021/01/12 12:49:03;;;;;;;1.70;1.55;;;;;;;;;;5031817;28;20423;-79
2021/01/12 12:51:29;;;;;;;1.40;1.23;;;;;;;;;;5031487;28;20180;-75
2021/01/12 12:53:56;;;;;;;0.93;0.93;;;;;;;;;;5030619;28;20276;-75
2021/01/12 12:56:22;;;;;;;1.20;1.10;;;;;;;;;;5031748;28;20204;-75
2021/01/12 12:58:48;;;;;;;0.52;0.52;;;;;;;;;;5031695;28;20216;-74
2021/01/12 13:04:18;;;;;;;1.63;0.60;;;;;;;;;;5031823;28;20225;-75
2021/01/12 13:06:51;;;;;;;1.33;0.93;;;;;;;;;;5030724;28;20165;-77
2021/01/12 13:09:17;;;;;;;1.65;1.27;;;;;;;;;;5030943;28;20180;-76
2021/01/12 13:11:47;;;;;;;2.80;1.95;;;;;;;;;;5030930;28;20188;-78
2021/01/12 13:14:14;;;;;;;1.63;1.00;;;;;;;;;;5030141;28;20170;-75
2021/01/12 13:16:44;;;;;;;0.80;0.80;;;;;;;;;;5030153;28;20212;-77
2021/01/12 13:19:14;;;;;;;1.58;0.93;;;;;;;;;;5030006;28;20200;-76
2021/01/12 13:21:47;;;;;;;1.48;1.38;;;;;;;;;;5031257;28;20173;-75
2021/01/12 13:24:14;;;;;;;1.40;1.15;;;;;;;;;;5032508;28;20173;-74
2021/01/12 13:26:40;;;;;;;0.95;0.93;;;;;;;;;;5032211;28;20178;-76
2021/01/12 13:29:06;;;;;;;1.30;1.20;;;;;;;;;;5032063;28;20165;-76
2021/01/12 13:31:32;;;;;;;2.72;1.00;;;;;;;;;;5030114;28;20248;-78
2021/01/12 13:33:58;;;;;;;1.57;1.03;;;;;;;;;;5030796;28;20720;-76
2021/01/12 13:36:23;;;;;;;0.50;0.50;;;;;;;;;;5030474;28;20475;-81
2021/01/12 13:38:51;;;;;;;0.67;0.67;;;;;;;;;;5030641;28;20428;-76
2021/01/12 13:41:17;;;;;;;0.70;0.70;;;;;;;;;;5031113;28;20408;-76
2021/01/12 13:43:43;;;;;;;0.75;0.75;;;;;;;;;;5031138;28;20169;-78
2021/01/12 13:49:12;;;;;;;1.60;1.05;;;;;;;;;;5030892;28;20921;-77
2021/01/12 13:51:39;;;;;;;0.60;0.60;;;;;;;;;;5030421;28;20168;-77
2021/01/12 13:54:05;;;;;;;0.80;0.80;;;;;;;;;;5030816;28;20619;-77
2021/01/12 13:56:37;;;;;;;1.00;0.90;;;;;;;;;;5030811;28;20220;-75
2021/01/12 13:59:03;;;;;;;0.50;0.50;;;;;;;;;;5030244;28;20157;-78
2021/01/12 14:04:33;;;;;;;0.60;0.60;;;;;;;;;;5030704;28;20168;-77
2021/01/12 14:06:59;;;;;;;0.68;0.68;;;;;;;;;;5030476;28;20558;-76
2021/01/12 14:09:25;;;;;;;3.03;1.00;;;;;;;;;;5030811;28;20169;-79
2021/01/12 14:11:51;;;;;;;0.57;0.57;;;;;;;;;;5030708;28;20821;-82
2021/01/12 14:14:17;;;;;;;0.60;0.60;;;;;;;;;;5030618;28;20224;-79
2021/01/12 14:19:48;;;;;;;0.82;0.80;;;;;;;;;;5030502;28;20242;-80
2021/01/12 14:22:21;;;;;;;0.95;0.70;;;;;;;;;;5030342;28;20169;-78
2021/01/12 14:24:48;;;;;;;0.80;0.80;;;;;;;;;;5030624;28;20759;-80
2021/01/12 14:27:14;;;;;;;0.70;0.70;;;;;;;;;;5030384;28;20170;-79
2021/01/12 14:29:41;;;;;;;1.10;0.82;;;;;;;;;;5030609;28;20181;-80
2021/01/12 14:32:07;;;;;;;0.80;0.70;;;;;;;;;;5030581;28;20613;-75
2021/01/12 14:34:33;;;;;;;0.95;0.95;;;;;;;;;;5030406;28;20689;-80
2021/01/12 14:37:00;;;;;;;0.70;0.70;;;;;;;;;;5030017;28;20594;-77
2021/01/12 14:39:28;;;;;;;8.13;1.30;;;;;;;;;;5030265;28;20616;-80
2021/01/12 14:41:55;;;;;;;0.95;0.80;;;;;;;;;;5030346;28;20170;-79
2021/01/12 14:44:24;;;;;;;1.02;0.80;;;;;;;;;;5030707;28;20257;-76
2021/01/12 14:49:53;;;;;;;1.25;0.73;;;;;;;;;;5030635;28;20184;-80
2021/01/12 14:52:19;;;;;;;0.70;0.70;;;;;;;;;;5030315;28;20161;-78
2021/01/12 14:54:46;;;;;;;0.70;0.70;;;;;;;;;;5030653;28;20169;-80
2021/01/12 14:57:12;;;;;;;0.90;0.90;;;;;;;;;;5033640;28;20204;-80
2021/01/12 14:59:38;;;;;;;0.60;0.60;;;;;;;;;;5032875;28;20173;-79
2021/01/12 15:05:08;;;;;;;0.63;0.63;;;;;;;;;;5034248;28;20179;-80
2021/01/12 15:07:35;;;;;;;1.30;1.20;;;;;;;;;;5033616;28;20218;-80
2021/01/12 15:10:01;;;;;;;1.35;1.10;;;;;;;;;;5032698;28;20504;-75
2021/01/12 15:12:27;;;;;;;0.65;0.65;;;;;;;;;;5033324;28;20205;-77
2021/01/12 15:14:53;;;;;;;0.50;0.50;;;;;;;;;;5033620;28;20170;-78
2021/01/12 15:17:19;;;;;;;0.80;0.80;;;;;;;;;;5033247;28;20263;-76
2021/01/12 15:19:45;;;;;;;0.90;0.90;;;;;;;;;;5033216;28;20239;-76
2021/01/12 15:22:11;;;;;;;0.90;0.90;;;;;;;;;;5033103;28;20181;-79
2021/01/12 15:24:37;;;;;;;0.90;0.90;;;;;;;;;;5033386;28;20755;-79
2021/01/12 15:27:03;;;;;;;1.10;1.00;;;;;;;;;;5033019;28;20177;-79
2021/01/12 15:29:29;;;;;;;0.75;0.75;;;;;;;;;;5031701;28;20927;-77
2021/01/12 15:34:59;;;;;;;0.77;0.77;;;;;;;;;;5033114;28;20208;-82
2021/01/12 15:37:25;;;;;;;2.00;1.43;;;;;;;;;;5032574;28;20269;-83
2021/01/12 15:39:51;;;;;;;0.80;0.80;;;;;;;;;;5032665;28;20887;-81
2021/01/12 15:42:17;;;;;;;1.13;0.82;;;;;;;;;;5033008;28;20426;-80
2021/01/12 15:44:43;;;;;;;1.05;0.95;;;;;;;;;;5032772;28;20208;-77
2021/01/12 15:50:13;;;;;;;1.00;0.88;;;;;;;;;;5033097;28;20176;-78
2021/01/12 15:52:50;;;;;;;0.90;0.90;;;;;;;;;;5032289;28;20171;-79
2021/01/12 15:55:16;;;;;;;0.90;0.90;;;;;;;;;;5032824;28;20567;-78
2021/01/12 15:57:42;;;;;;;1.13;1.02;;;;;;;;;;5032518;28;20213;-81
2021/01/12 16:00:08;;;;;;;1.02;0.90;;;;;;;;;;5032567;28;20169;-79
2021/01/12 16:05:38;;;;;;;1.48;1.20;;;;;;;;;;5032599;28;20226;-81
2021/01/12 16:08:05;;;;;;;1.30;1.15;;;;;;;;;;5032500;28;20583;-79
2021/01/12 16:10:32;;;;;;;1.30;1.20;;;;;;;;;;5031306;28;20720;-77
2021/01/12 16:12:59;;;;;;;0.90;0.90;;;;;;;;;;5032160;28;20177;-77
2021/01/12 16:15:26;;;;;;;1.20;1.10;;;;;;;;;;5031129;28;20185;-78
2021/01/12 16:17:53;;;;;;;1.83;1.20;;;;;;;;;;5032892;28;20595;-78
2021/01/12 16:20:19;;;;;;;1.00;1.00;;;;;;;;;;5032560;28;20209;-81
2021/01/12 16:22:47;;;;;;;1.13;0.93;;;;;;;;;;5032007;28;20161;-76
2021/01/12 16:25:13;;;;;;;1.27;1.13;;;;;;;;;;5032915;28;20170;-77
2021/01/12 16:27:50;;;;;;;1.10;1.00;;;;;;;;;;5032750;28;20161;-78
2021/01/12 16:30:17;;;;;;;0.93;0.93;;;;;;;;;;5033092;28;20173;-78
2021/01/12 16:35:46;;;;;;;1.05;0.80;;;;;;;;;;5033422;28;20234;-81
2021/01/12 16:38:12;;;;;;;1.13;0.90;;;;;;;;;;5034168;28;20532;-82
2021/01/12 16:40:39;;;;;;;0.95;0.70;;;;;;;;;;5034066;28;20181;-81
2021/01/12 16:43:06;;;;;;;0.80;0.70;;;;;;;;;;5033618;28;20222;-82
2021/01/12 16:45:33;;;;;;;1.10;0.80;;;;;;;;;;5033019;28;20264;-80
2021/01/12 16:47:59;;;;;;;0.90;0.75;;;;;;;;;;5033638;28;20188;-83
2021/01/12 16:50:25;;;;;;;1.40;1.25;;;;;;;;;;5034568;28;20235;-78
2021/01/12 16:53:02;;;;;;;1.40;1.10;;;;;;;;;;5033077;28;20231;-75
2021/01/12 16:55:28;;;;;;;1.35;0.75;;;;;;;;;;5032836;28;20165;-82
2021/01/12 16:57:54;;;;;;;1.00;0.90;;;;;;;;;;5033144;28;20176;-79
2021/01/12 17:00:21;;;;;;;2.40;1.02;;;;;;;;;;5033361;28;20177;-78